sensor_id;sensor_type;location;lat;lon;timestamp;P1;durP1;ratioP1;P2;durP2;ratioP2
19940;SDS011;10132;50.864;5.176;2022-07-23T00:01:34;10.37;;;8.43;;
19940;SDS011;10132;50.864;5.176;2022-07-23T00:03:36;11.33;;;8.17;;
19940;SDS011;10132;50.864;5.176;2022-07-23T00:05:38;10.83;;;8.93;;
19940;SDS011;10132;50.864;5.176;2022-07-23T00:07:41;12.40;;;9.30;;
19940;SDS011;10132;50.864;5.176;2022-07-23T00:09:43;12.77;;;10.00;;
19940;SDS011;10132;50.864;5.176;2022-07-23T00:11:44;12.57;;;9.20;;
19940;SDS011;10132;50.864;5.176;2022-07-23T00:13:48;11.80;;;9.40;;
19940;SDS011;10132;50.864;5.176;2022-07-23T00:15:50;11.27;;;9.23;;
19940;SDS011;10132;50.864;5.176;2022-07-23T00:17:52;9.73;;;8.60;;
19940;SDS011;10132;50.864;5.176;2022-07-23T00:19:54;9.20;;;8.40;;
19940;SDS011;10132;50.864;5.176;2022-07-23T00:21:56;11.03;;;9.40;;
19940;SDS011;10132;50.864;5.176;2022-07-23T00:23:58;9.60;;;8.60;;
19940;SDS011;10132;50.864;5.176;2022-07-23T00:25:59;11.37;;;9.00;;
19940;SDS011;10132;50.864;5.176;2022-07-23T00:28:02;12.47;;;9.43;;
19940;SDS011;10132;50.864;5.176;2022-07-23T00:30:06;10.90;;;9.50;;
19940;SDS011;10132;50.864;5.176;2022-07-23T00:32:10;10.70;;;8.93;;
19940;SDS011;10132;50.864;5.176;2022-07-23T00:34:11;11.20;;;9.20;;
19940;SDS011;10132;50.864;5.176;2022-07-23T00:36:13;10.07;;;9.07;;
19940;SDS011;10132;50.864;5.176;2022-07-23T00:38:15;9.33;;;8.37;;
19940;SDS011;10132;50.864;5.176;2022-07-23T00:40:17;9.77;;;8.77;;
19940;SDS011;10132;50.864;5.176;2022-07-23T00:42:19;10.93;;;8.40;;
19940;SDS011;10132;50.864;5.176;2022-07-23T00:44:22;11.87;;;8.63;;
19940;SDS011;10132;50.864;5.176;2022-07-23T00:46:26;9.77;;;8.80;;
19940;SDS011;10132;50.864;5.176;2022-07-23T00:48:28;11.67;;;9.77;;
19940;SDS011;10132;50.864;5.176;2022-07-23T00:50:30;10.07;;;9.00;;
19940;SDS011;10132;50.864;5.176;2022-07-23T00:52:32;11.97;;;10.03;;
19940;SDS011;10132;50.864;5.176;2022-07-23T00:54:35;10.63;;;9.53;;
19940;SDS011;10132;50.864;5.176;2022-07-23T00:56:37;9.90;;;8.73;;
19940;SDS011;10132;50.864;5.176;2022-07-23T00:58:40;10.53;;;9.43;;
19940;SDS011;10132;50.864;5.176;2022-07-23T01:00:43;10.83;;;9.73;;
19940;SDS011;10132;50.864;5.176;2022-07-23T01:02:47;13.23;;;10.17;;
19940;SDS011;10132;50.864;5.176;2022-07-23T01:04:49;11.27;;;10.13;;
19940;SDS011;10132;50.864;5.176;2022-07-23T01:06:51;10.30;;;8.97;;
19940;SDS011;10132;50.864;5.176;2022-07-23T01:08:53;11.00;;;8.60;;
19940;SDS011;10132;50.864;5.176;2022-07-23T01:10:55;9.30;;;8.30;;
19940;SDS011;10132;50.864;5.176;2022-07-23T01:12:57;10.73;;;8.23;;
19940;SDS011;10132;50.864;5.176;2022-07-23T01:15:00;9.30;;;7.73;;
19940;SDS011;10132;50.864;5.176;2022-07-23T01:17:02;7.83;;;7.13;;
19940;SDS011;10132;50.864;5.176;2022-07-23T01:19:05;9.77;;;7.10;;
19940;SDS011;10132;50.864;5.176;2022-07-23T01:21:08;9.03;;;8.07;;
19940;SDS011;10132;50.864;5.176;2022-07-23T01:23:15;10.27;;;8.10;;
19940;SDS011;10132;50.864;5.176;2022-07-23T01:25:17;9.77;;;8.50;;
19940;SDS011;10132;50.864;5.176;2022-07-23T01:27:19;9.43;;;8.53;;
19940;SDS011;10132;50.864;5.176;2022-07-23T01:29:21;8.27;;;7.53;;
19940;SDS011;10132;50.864;5.176;2022-07-23T01:31:23;8.77;;;7.73;;
19940;SDS011;10132;50.864;5.176;2022-07-23T01:33:25;8.60;;;7.70;;
19940;SDS011;10132;50.864;5.176;2022-07-23T01:35:27;9.23;;;7.63;;
19940;SDS011;10132;50.864;5.176;2022-07-23T01:37:29;8.37;;;7.20;;
19940;SDS011;10132;50.864;5.176;2022-07-23T01:39:32;8.33;;;6.67;;
19940;SDS011;10132;50.864;5.176;2022-07-23T01:41:34;8.33;;;7.47;;
19940;SDS011;10132;50.864;5.176;2022-07-23T01:43:36;8.40;;;7.50;;
19940;SDS011;10132;50.864;5.176;2022-07-23T01:45:38;8.13;;;7.30;;
19940;SDS011;10132;50.864;5.176;2022-07-23T01:47:40;8.20;;;7.40;;
19940;SDS011;10132;50.864;5.176;2022-07-23T01:49:42;7.93;;;7.23;;
19940;SDS011;10132;50.864;5.176;2022-07-23T01:51:44;9.70;;;7.97;;
19940;SDS011;10132;50.864;5.176;2022-07-23T01:54:13;8.80;;;7.90;;
19940;SDS011;10132;50.864;5.176;2022-07-23T01:56:15;8.43;;;7.63;;
19940;SDS011;10132;50.864;5.176;2022-07-23T01:58:19;8.80;;;7.70;;
19940;SDS011;10132;50.864;5.176;2022-07-23T02:00:20;9.27;;;7.47;;
19940;SDS011;10132;50.864;5.176;2022-07-23T02:02:22;11.13;;;7.27;;
19940;SDS011;10132;50.864;5.176;2022-07-23T02:04:25;9.40;;;7.40;;
19940;SDS011;10132;50.864;5.176;2022-07-23T02:06:28;9.57;;;7.70;;
19940;SDS011;10132;50.864;5.176;2022-07-23T02:08:30;8.17;;;7.40;;
19940;SDS011;10132;50.864;5.176;2022-07-23T02:10:33;10.30;;;8.27;;
19940;SDS011;10132;50.864;5.176;2022-07-23T02:12:35;10.90;;;8.13;;
19940;SDS011;10132;50.864;5.176;2022-07-23T02:14:37;10.17;;;7.70;;
19940;SDS011;10132;50.864;5.176;2022-07-23T02:16:39;9.93;;;8.33;;
19940;SDS011;10132;50.864;5.176;2022-07-23T02:18:41;9.07;;;7.93;;
19940;SDS011;10132;50.864;5.176;2022-07-23T02:20:43;8.17;;;7.23;;
19940;SDS011;10132;50.864;5.176;2022-07-23T02:22:45;9.77;;;7.47;;
19940;SDS011;10132;50.864;5.176;2022-07-23T02:24:46;8.27;;;7.17;;
19940;SDS011;10132;50.864;5.176;2022-07-23T02:26:50;9.73;;;7.90;;
19940;SDS011;10132;50.864;5.176;2022-07-23T02:28:52;9.43;;;8.43;;
19940;SDS011;10132;50.864;5.176;2022-07-23T02:30:54;11.67;;;7.73;;
19940;SDS011;10132;50.864;5.176;2022-07-23T02:32:56;12.40;;;8.37;;
19940;SDS011;10132;50.864;5.176;2022-07-23T02:34:58;8.40;;;7.50;;
19940;SDS011;10132;50.864;5.176;2022-07-23T02:37:00;8.80;;;7.73;;
19940;SDS011;10132;50.864;5.176;2022-07-23T02:39:02;8.13;;;7.30;;
19940;SDS011;10132;50.864;5.176;2022-07-23T02:41:04;8.83;;;7.30;;
19940;SDS011;10132;50.864;5.176;2022-07-23T02:43:07;9.87;;;7.20;;
19940;SDS011;10132;50.864;5.176;2022-07-23T02:45:09;8.00;;;7.17;;
19940;SDS011;10132;50.864;5.176;2022-07-23T02:47:11;7.97;;;7.17;;
19940;SDS011;10132;50.864;5.176;2022-07-23T02:49:13;7.03;;;6.43;;
19940;SDS011;10132;50.864;5.176;2022-07-23T02:51:15;8.30;;;7.00;;
19940;SDS011;10132;50.864;5.176;2022-07-23T02:53:17;10.07;;;7.87;;
19940;SDS011;10132;50.864;5.176;2022-07-23T02:55:19;8.47;;;7.67;;
19940;SDS011;10132;50.864;5.176;2022-07-23T02:57:21;8.57;;;7.67;;
19940;SDS011;10132;50.864;5.176;2022-07-23T02:59:24;9.90;;;7.60;;
19940;SDS011;10132;50.864;5.176;2022-07-23T03:01:26;9.07;;;7.97;;
19940;SDS011;10132;50.864;5.176;2022-07-23T03:03:28;10.30;;;7.90;;
19940;SDS011;10132;50.864;5.176;2022-07-23T03:05:30;7.00;;;6.30;;
19940;SDS011;10132;50.864;5.176;2022-07-23T03:07:32;9.97;;;6.93;;
19940;SDS011;10132;50.864;5.176;2022-07-23T03:09:34;9.27;;;7.20;;
19940;SDS011;10132;50.864;5.176;2022-07-23T03:11:36;7.37;;;6.60;;
19940;SDS011;10132;50.864;5.176;2022-07-23T03:13:38;7.70;;;7.00;;
19940;SDS011;10132;50.864;5.176;2022-07-23T03:15:41;8.27;;;6.83;;
19940;SDS011;10132;50.864;5.176;2022-07-23T03:17:43;10.60;;;7.90;;
19940;SDS011;10132;50.864;5.176;2022-07-23T03:19:45;7.90;;;7.10;;
19940;SDS011;10132;50.864;5.176;2022-07-23T03:21:47;8.80;;;7.57;;
19940;SDS011;10132;50.864;5.176;2022-07-23T03:23:49;8.33;;;6.67;;
19940;SDS011;10132;50.864;5.176;2022-07-23T03:25:51;8.00;;;7.07;;
19940;SDS011;10132;50.864;5.176;2022-07-23T03:27:53;8.97;;;7.80;;
19940;SDS011;10132;50.864;5.176;2022-07-23T03:29:55;7.63;;;6.93;;
19940;SDS011;10132;50.864;5.176;2022-07-23T03:32:00;7.70;;;6.70;;
19940;SDS011;10132;50.864;5.176;2022-07-23T03:34:03;9.70;;;7.10;;
19940;SDS011;10132;50.864;5.176;2022-07-23T03:36:05;10.83;;;7.80;;
19940;SDS011;10132;50.864;5.176;2022-07-23T03:38:07;8.57;;;6.70;;
19940;SDS011;10132;50.864;5.176;2022-07-23T03:40:10;7.33;;;6.10;;
19940;SDS011;10132;50.864;5.176;2022-07-23T03:42:12;8.10;;;6.90;;
19940;SDS011;10132;50.864;5.176;2022-07-23T03:44:14;8.73;;;7.30;;
19940;SDS011;10132;50.864;5.176;2022-07-23T03:46:16;8.43;;;7.07;;
19940;SDS011;10132;50.864;5.176;2022-07-23T03:48:19;8.83;;;7.60;;
19940;SDS011;10132;50.864;5.176;2022-07-23T03:50:21;11.17;;;8.37;;
19940;SDS011;10132;50.864;5.176;2022-07-23T03:52:23;11.40;;;8.60;;
19940;SDS011;10132;50.864;5.176;2022-07-23T03:54:25;9.10;;;8.20;;
19940;SDS011;10132;50.864;5.176;2022-07-23T03:56:27;11.40;;;8.17;;
19940;SDS011;10132;50.864;5.176;2022-07-23T03:58:29;9.60;;;8.60;;
19940;SDS011;10132;50.864;5.176;2022-07-23T04:00:31;10.93;;;8.67;;
19940;SDS011;10132;50.864;5.176;2022-07-23T04:02:33;9.27;;;8.37;;
19940;SDS011;10132;50.864;5.176;2022-07-23T04:04:36;9.27;;;8.23;;
19940;SDS011;10132;50.864;5.176;2022-07-23T04:06:38;8.93;;;8.03;;
19940;SDS011;10132;50.864;5.176;2022-07-23T04:08:40;11.33;;;7.67;;
19940;SDS011;10132;50.864;5.176;2022-07-23T04:10:42;8.43;;;7.53;;
19940;SDS011;10132;50.864;5.176;2022-07-23T04:12:44;10.67;;;7.20;;
19940;SDS011;10132;50.864;5.176;2022-07-23T04:14:46;14.07;;;7.50;;
19940;SDS011;10132;50.864;5.176;2022-07-23T04:16:48;8.93;;;8.13;;
19940;SDS011;10132;50.864;5.176;2022-07-23T04:18:50;8.73;;;7.83;;
19940;SDS011;10132;50.864;5.176;2022-07-23T04:20:53;8.67;;;7.70;;
19940;SDS011;10132;50.864;5.176;2022-07-23T04:22:55;8.60;;;7.60;;
19940;SDS011;10132;50.864;5.176;2022-07-23T04:24:57;8.40;;;7.60;;
19940;SDS011;10132;50.864;5.176;2022-07-23T04:26:59;8.10;;;6.93;;
19940;SDS011;10132;50.864;5.176;2022-07-23T04:29:01;7.50;;;6.80;;
19940;SDS011;10132;50.864;5.176;2022-07-23T04:31:03;8.43;;;6.87;;
19940;SDS011;10132;50.864;5.176;2022-07-23T04:33:05;7.27;;;6.60;;
19940;SDS011;10132;50.864;5.176;2022-07-23T04:35:07;6.27;;;5.77;;
19940;SDS011;10132;50.864;5.176;2022-07-23T04:37:11;6.00;;;5.50;;
19940;SDS011;10132;50.864;5.176;2022-07-23T04:39:13;5.50;;;5.00;;
19940;SDS011;10132;50.864;5.176;2022-07-23T04:41:15;7.77;;;5.67;;
19940;SDS011;10132;50.864;5.176;2022-07-23T04:43:17;6.57;;;5.97;;
19940;SDS011;10132;50.864;5.176;2022-07-23T04:45:19;6.43;;;5.83;;
19940;SDS011;10132;50.864;5.176;2022-07-23T04:47:21;5.93;;;5.43;;
19940;SDS011;10132;50.864;5.176;2022-07-23T04:49:23;6.77;;;6.10;;
19940;SDS011;10132;50.864;5.176;2022-07-23T04:51:25;7.20;;;6.37;;
19940;SDS011;10132;50.864;5.176;2022-07-23T04:53:30;7.73;;;6.90;;
19940;SDS011;10132;50.864;5.176;2022-07-23T04:55:32;9.97;;;7.13;;
19940;SDS011;10132;50.864;5.176;2022-07-23T04:57:34;9.23;;;7.13;;
19940;SDS011;10132;50.864;5.176;2022-07-23T04:59:36;8.27;;;7.37;;
19940;SDS011;10132;50.864;5.176;2022-07-23T05:01:38;8.67;;;7.87;;
19940;SDS011;10132;50.864;5.176;2022-07-23T05:03:41;9.13;;;7.90;;
19940;SDS011;10132;50.864;5.176;2022-07-23T05:05:43;8.93;;;7.67;;
19940;SDS011;10132;50.864;5.176;2022-07-23T05:07:45;11.37;;;8.20;;
19940;SDS011;10132;50.864;5.176;2022-07-23T05:09:49;9.87;;;7.80;;
19940;SDS011;10132;50.864;5.176;2022-07-23T05:11:51;7.93;;;7.13;;
19940;SDS011;10132;50.864;5.176;2022-07-23T05:13:53;8.20;;;7.33;;
19940;SDS011;10132;50.864;5.176;2022-07-23T05:15:55;9.90;;;7.80;;
19940;SDS011;10132;50.864;5.176;2022-07-23T05:17:56;11.03;;;8.43;;
19940;SDS011;10132;50.864;5.176;2022-07-23T05:19:58;10.50;;;8.57;;
19940;SDS011;10132;50.864;5.176;2022-07-23T05:22:00;11.17;;;8.37;;
19940;SDS011;10132;50.864;5.176;2022-07-23T05:24:02;9.13;;;8.00;;
19940;SDS011;10132;50.864;5.176;2022-07-23T05:26:06;10.93;;;8.97;;
19940;SDS011;10132;50.864;5.176;2022-07-23T05:28:08;11.33;;;9.07;;
19940;SDS011;10132;50.864;5.176;2022-07-23T05:30:10;10.23;;;8.97;;
19940;SDS011;10132;50.864;5.176;2022-07-23T05:32:12;13.00;;;9.30;;
19940;SDS011;10132;50.864;5.176;2022-07-23T05:34:14;13.60;;;9.20;;
19940;SDS011;10132;50.864;5.176;2022-07-23T05:36:16;11.97;;;9.83;;
19940;SDS011;10132;50.864;5.176;2022-07-23T05:38:18;12.20;;;9.13;;
19940;SDS011;10132;50.864;5.176;2022-07-23T05:40:20;13.13;;;9.87;;
19940;SDS011;10132;50.864;5.176;2022-07-23T05:42:24;13.57;;;10.30;;
19940;SDS011;10132;50.864;5.176;2022-07-23T05:44:26;10.67;;;9.40;;
19940;SDS011;10132;50.864;5.176;2022-07-23T05:46:28;10.80;;;8.90;;
19940;SDS011;10132;50.864;5.176;2022-07-23T05:48:30;11.10;;;9.50;;
19940;SDS011;10132;50.864;5.176;2022-07-23T05:50:32;11.20;;;9.03;;
19940;SDS011;10132;50.864;5.176;2022-07-23T05:52:34;10.93;;;9.47;;
19940;SDS011;10132;50.864;5.176;2022-07-23T05:54:36;10.00;;;9.00;;
19940;SDS011;10132;50.864;5.176;2022-07-23T05:56:38;10.57;;;9.03;;
19940;SDS011;10132;50.864;5.176;2022-07-23T05:58:41;11.70;;;9.17;;
19940;SDS011;10132;50.864;5.176;2022-07-23T06:00:43;11.40;;;9.93;;
19940;SDS011;10132;50.864;5.176;2022-07-23T06:02:45;12.97;;;10.03;;
19940;SDS011;10132;50.864;5.176;2022-07-23T06:04:47;12.97;;;10.33;;
19940;SDS011;10132;50.864;5.176;2022-07-23T06:06:49;13.90;;;10.03;;
19940;SDS011;10132;50.864;5.176;2022-07-23T06:08:50;10.77;;;9.73;;
19940;SDS011;10132;50.864;5.176;2022-07-23T06:10:52;13.00;;;9.13;;
19940;SDS011;10132;50.864;5.176;2022-07-23T06:12:54;13.80;;;10.57;;
19940;SDS011;10132;50.864;5.176;2022-07-23T06:14:57;13.53;;;10.53;;
19940;SDS011;10132;50.864;5.176;2022-07-23T06:16:59;12.00;;;10.27;;
19940;SDS011;10132;50.864;5.176;2022-07-23T06:19:01;11.60;;;9.40;;
19940;SDS011;10132;50.864;5.176;2022-07-23T06:21:03;10.90;;;9.70;;
19940;SDS011;10132;50.864;5.176;2022-07-23T06:23:05;14.03;;;10.30;;
19940;SDS011;10132;50.864;5.176;2022-07-23T06:25:07;12.17;;;10.30;;
19940;SDS011;10132;50.864;5.176;2022-07-23T06:27:09;11.93;;;10.40;;
19940;SDS011;10132;50.864;5.176;2022-07-23T06:29:11;11.60;;;10.40;;
19940;SDS011;10132;50.864;5.176;2022-07-23T06:31:15;10.38;;;9.38;;
19940;SDS011;10132;50.864;5.176;2022-07-23T06:33:16;13.00;;;9.82;;
19940;SDS011;10132;50.864;5.176;2022-07-23T06:35:18;12.73;;;10.15;;
19940;SDS011;10132;50.864;5.176;2022-07-23T06:37:20;11.88;;;10.52;;
19940;SDS011;10132;50.864;5.176;2022-07-23T06:39:22;11.30;;;10.20;;
19940;SDS011;10132;50.864;5.176;2022-07-23T06:41:24;12.73;;;9.25;;
19940;SDS011;10132;50.864;5.176;2022-07-23T06:43:26;16.02;;;10.50;;
19940;SDS011;10132;50.864;5.176;2022-07-23T06:45:28;10.85;;;9.50;;
19940;SDS011;10132;50.864;5.176;2022-07-23T06:47:31;10.32;;;9.43;;
19940;SDS011;10132;50.864;5.176;2022-07-23T06:49:33;10.32;;;9.40;;
19940;SDS011;10132;50.864;5.176;2022-07-23T06:51:35;10.32;;;9.40;;
19940;SDS011;10132;50.864;5.176;2022-07-23T06:53:38;9.82;;;8.90;;
19940;SDS011;10132;50.864;5.176;2022-07-23T06:55:41;11.32;;;10.23;;
19940;SDS011;10132;50.864;5.176;2022-07-23T06:57:43;12.80;;;9.90;;
19940;SDS011;10132;50.864;5.176;2022-07-23T06:59:44;10.70;;;9.38;;
19940;SDS011;10132;50.864;5.176;2022-07-23T07:01:46;13.63;;;10.10;;
19940;SDS011;10132;50.864;5.176;2022-07-23T07:03:50;14.80;;;10.30;;
19940;SDS011;10132;50.864;5.176;2022-07-23T07:05:52;12.50;;;10.63;;
19940;SDS011;10132;50.864;5.176;2022-07-23T07:07:54;11.05;;;9.63;;
19940;SDS011;10132;50.864;5.176;2022-07-23T07:09:56;11.55;;;9.55;;
19940;SDS011;10132;50.864;5.176;2022-07-23T07:11:58;12.27;;;9.60;;
19940;SDS011;10132;50.864;5.176;2022-07-23T07:14:00;13.15;;;10.60;;
19940;SDS011;10132;50.864;5.176;2022-07-23T07:16:02;12.63;;;10.40;;
19940;SDS011;10132;50.864;5.176;2022-07-23T07:18:04;13.38;;;10.23;;
19940;SDS011;10132;50.864;5.176;2022-07-23T07:20:08;13.32;;;10.75;;
19940;SDS011;10132;50.864;5.176;2022-07-23T07:22:11;13.10;;;9.88;;
19940;SDS011;10132;50.864;5.176;2022-07-23T07:24:13;11.60;;;10.40;;
19940;SDS011;10132;50.864;5.176;2022-07-23T07:26:15;12.68;;;10.07;;
19940;SDS011;10132;50.864;5.176;2022-07-23T07:28:17;10.50;;;9.50;;
19940;SDS011;10132;50.864;5.176;2022-07-23T07:30:19;10.55;;;9.55;;
19940;SDS011;10132;50.864;5.176;2022-07-23T07:32:21;12.73;;;10.23;;
19940;SDS011;10132;50.864;5.176;2022-07-23T07:34:22;11.38;;;10.13;;
19940;SDS011;10132;50.864;5.176;2022-07-23T07:36:26;10.77;;;9.77;;
19940;SDS011;10132;50.864;5.176;2022-07-23T07:38:28;13.05;;;10.45;;
19940;SDS011;10132;50.864;5.176;2022-07-23T07:40:29;14.43;;;10.90;;
19940;SDS011;10132;50.864;5.176;2022-07-23T07:42:31;11.90;;;10.73;;
19940;SDS011;10132;50.864;5.176;2022-07-23T07:44:33;11.88;;;10.65;;
19940;SDS011;10132;50.864;5.176;2022-07-23T07:46:35;11.70;;;10.45;;
19940;SDS011;10132;50.864;5.176;2022-07-23T07:48:37;12.23;;;10.00;;
19940;SDS011;10132;50.864;5.176;2022-07-23T07:50:39;11.88;;;10.70;;
19940;SDS011;10132;50.864;5.176;2022-07-23T07:52:42;11.57;;;9.75;;
19940;SDS011;10132;50.864;5.176;2022-07-23T07:54:44;11.85;;;10.40;;
19940;SDS011;10132;50.864;5.176;2022-07-23T07:56:46;12.38;;;9.93;;
19940;SDS011;10132;50.864;5.176;2022-07-23T07:58:48;12.40;;;10.38;;
19940;SDS011;10132;50.864;5.176;2022-07-23T08:00:50;11.75;;;10.52;;
19940;SDS011;10132;50.864;5.176;2022-07-23T08:02:53;14.10;;;10.48;;
19940;SDS011;10132;50.864;5.176;2022-07-23T08:04:55;10.38;;;9.38;;
19940;SDS011;10132;50.864;5.176;2022-07-23T08:06:57;11.57;;;9.57;;
19940;SDS011;10132;50.864;5.176;2022-07-23T08:09:00;10.07;;;9.13;;
19940;SDS011;10132;50.864;5.176;2022-07-23T08:11:02;12.70;;;10.13;;
19940;SDS011;10132;50.864;5.176;2022-07-23T08:13:04;11.25;;;9.82;;
19940;SDS011;10132;50.864;5.176;2022-07-23T08:15:06;12.98;;;9.77;;
19940;SDS011;10132;50.864;5.176;2022-07-23T08:17:09;11.77;;;10.02;;
19940;SDS011;10132;50.864;5.176;2022-07-23T08:19:11;12.38;;;8.88;;
19940;SDS011;10132;50.864;5.176;2022-07-23T08:21:13;11.40;;;9.50;;
19940;SDS011;10132;50.864;5.176;2022-07-23T08:23:15;11.50;;;9.57;;
19940;SDS011;10132;50.864;5.176;2022-07-23T08:25:21;12.55;;;9.60;;
19940;SDS011;10132;50.864;5.176;2022-07-23T08:27:23;12.95;;;9.57;;
19940;SDS011;10132;50.864;5.176;2022-07-23T08:29:25;13.50;;;10.05;;
19940;SDS011;10132;50.864;5.176;2022-07-23T08:31:27;11.20;;;10.00;;
19940;SDS011;10132;50.864;5.176;2022-07-23T08:33:29;10.25;;;9.25;;
19940;SDS011;10132;50.864;5.176;2022-07-23T08:35:31;10.57;;;9.15;;
19940;SDS011;10132;50.864;5.176;2022-07-23T08:37:34;9.60;;;8.60;;
19940;SDS011;10132;50.864;5.176;2022-07-23T08:39:36;10.05;;;8.85;;
19940;SDS011;10132;50.864;5.176;2022-07-23T08:41:40;11.85;;;9.30;;
19940;SDS011;10132;50.864;5.176;2022-07-23T08:43:42;11.68;;;9.45;;
19940;SDS011;10132;50.864;5.176;2022-07-23T08:45:46;11.75;;;8.63;;
19940;SDS011;10132;50.864;5.176;2022-07-23T08:47:49;10.15;;;9.15;;
19940;SDS011;10132;50.864;5.176;2022-07-23T08:49:52;9.63;;;8.70;;
19940;SDS011;10132;50.864;5.176;2022-07-23T08:51:54;14.18;;;9.30;;
19940;SDS011;10132;50.864;5.176;2022-07-23T08:53:56;10.00;;;8.68;;
19940;SDS011;10132;50.864;5.176;2022-07-23T08:56:00;9.77;;;8.75;;
19940;SDS011;10132;50.864;5.176;2022-07-23T08:58:04;11.88;;;9.20;;
19940;SDS011;10132;50.864;5.176;2022-07-23T09:00:07;10.68;;;9.05;;
19940;SDS011;10132;50.864;5.176;2022-07-23T09:02:10;10.43;;;8.98;;
19940;SDS011;10132;50.864;5.176;2022-07-23T09:04:13;9.38;;;8.13;;
19940;SDS011;10132;50.864;5.176;2022-07-23T09:06:14;9.57;;;8.40;;
19940;SDS011;10132;50.864;5.176;2022-07-23T09:08:17;16.02;;;9.38;;
19940;SDS011;10132;50.864;5.176;2022-07-23T09:10:21;10.27;;;8.45;;
19940;SDS011;10132;50.864;5.176;2022-07-23T09:12:24;9.38;;;8.10;;
19940;SDS011;10132;50.864;5.176;2022-07-23T09:14:36;10.43;;;7.63;;
19940;SDS011;10132;50.864;5.176;2022-07-23T09:16:40;8.48;;;7.65;;
19940;SDS011;10132;50.864;5.176;2022-07-23T09:18:44;9.02;;;7.22;;
19940;SDS011;10132;50.864;5.176;2022-07-23T09:20:48;10.30;;;8.73;;
19940;SDS011;10132;50.864;5.176;2022-07-23T09:22:50;9.20;;;8.30;;
19940;SDS011;10132;50.864;5.176;2022-07-23T09:25:02;9.50;;;8.48;;
19940;SDS011;10132;50.864;5.176;2022-07-23T09:27:09;10.45;;;8.27;;
19940;SDS011;10132;50.864;5.176;2022-07-23T09:29:12;9.90;;;8.27;;
19940;SDS011;10132;50.864;5.176;2022-07-23T09:31:18;10.05;;;8.45;;
19940;SDS011;10132;50.864;5.176;2022-07-23T09:33:20;9.70;;;8.55;;
19940;SDS011;10132;50.864;5.176;2022-07-23T09:35:25;9.77;;;8.25;;
19940;SDS011;10132;50.864;5.176;2022-07-23T09:37:45;10.43;;;8.00;;
19940;SDS011;10132;50.864;5.176;2022-07-23T09:40:03;8.98;;;8.07;;
19940;SDS011;10132;50.864;5.176;2022-07-23T09:42:12;8.95;;;7.43;;
19940;SDS011;10132;50.864;5.176;2022-07-23T09:44:15;8.15;;;7.20;;
19940;SDS011;10132;50.864;5.176;2022-07-23T09:46:20;7.65;;;6.57;;
19940;SDS011;10132;50.864;5.176;2022-07-23T09:48:24;7.68;;;6.60;;
19940;SDS011;10132;50.864;5.176;2022-07-23T09:50:26;8.02;;;5.72;;
19940;SDS011;10132;50.864;5.176;2022-07-23T09:52:29;6.38;;;5.78;;
19940;SDS011;10132;50.864;5.176;2022-07-23T09:54:32;9.73;;;6.75;;
19940;SDS011;10132;50.864;5.176;2022-07-23T09:56:36;7.80;;;6.82;;
19940;SDS011;10132;50.864;5.176;2022-07-23T09:58:38;7.88;;;6.85;;
19940;SDS011;10132;50.864;5.176;2022-07-23T10:00:46;8.95;;;6.50;;
19940;SDS011;10132;50.864;5.176;2022-07-23T10:02:51;7.93;;;6.97;;
19940;SDS011;10132;50.864;5.176;2022-07-23T10:04:54;9.73;;;6.25;;
19940;SDS011;10132;50.864;5.176;2022-07-23T10:06:57;8.00;;;7.15;;
19940;SDS011;10132;50.864;5.176;2022-07-23T10:09:00;9.30;;;6.97;;
19940;SDS011;10132;50.864;5.176;2022-07-23T10:11:03;7.60;;;6.25;;
19940;SDS011;10132;50.864;5.176;2022-07-23T10:13:06;10.88;;;7.20;;
19940;SDS011;10132;50.864;5.176;2022-07-23T10:15:31;10.00;;;7.70;;
19940;SDS011;10132;50.864;5.176;2022-07-23T10:17:33;10.10;;;7.45;;
19940;SDS011;10132;50.864;5.176;2022-07-23T10:19:37;7.63;;;6.68;;
19940;SDS011;10132;50.864;5.176;2022-07-23T10:21:41;7.05;;;6.03;;
19940;SDS011;10132;50.864;5.176;2022-07-23T10:23:47;8.23;;;6.72;;
19940;SDS011;10132;50.864;5.176;2022-07-23T10:26:06;9.95;;;6.70;;
19940;SDS011;10132;50.864;5.176;2022-07-23T10:28:16;7.55;;;5.88;;
19940;SDS011;10132;50.864;5.176;2022-07-23T10:30:35;8.13;;;5.97;;
19940;SDS011;10132;50.864;5.176;2022-07-23T10:32:45;8.38;;;6.07;;
19940;SDS011;10132;50.864;5.176;2022-07-23T10:35:05;8.95;;;5.50;;
19940;SDS011;10132;50.864;5.176;2022-07-23T10:37:14;8.15;;;5.13;;
19940;SDS011;10132;50.864;5.176;2022-07-23T10:39:24;6.65;;;5.20;;
19940;SDS011;10132;50.864;5.176;2022-07-23T10:41:32;7.22;;;5.32;;
19940;SDS011;10132;50.864;5.176;2022-07-23T10:43:35;5.93;;;4.80;;
19940;SDS011;10132;50.864;5.176;2022-07-23T10:45:37;6.68;;;4.32;;
19940;SDS011;10132;50.864;5.176;2022-07-23T10:47:39;5.55;;;4.53;;
19940;SDS011;10132;50.864;5.176;2022-07-23T10:49:41;4.20;;;3.80;;
19940;SDS011;10132;50.864;5.176;2022-07-23T10:54:21;4.00;;;3.60;;
19940;SDS011;10132;50.864;5.176;2022-07-23T10:59:07;6.43;;;3.10;;
19940;SDS011;10132;50.864;5.176;2022-07-23T11:03:35;4.05;;;3.28;;
19940;SDS011;10132;50.864;5.176;2022-07-23T11:05:41;4.15;;;3.33;;
19940;SDS011;10132;50.864;5.176;2022-07-23T11:12:44;4.53;;;3.80;;
19940;SDS011;10132;50.864;5.176;2022-07-23T11:14:58;3.92;;;3.50;;
19940;SDS011;10132;50.864;5.176;2022-07-23T11:17:01;5.13;;;3.75;;
19940;SDS011;10132;50.864;5.176;2022-07-23T11:19:07;4.50;;;3.60;;
19940;SDS011;10132;50.864;5.176;2022-07-23T11:23:58;5.53;;;3.05;;
19940;SDS011;10132;50.864;5.176;2022-07-23T11:26:00;3.85;;;3.30;;
19940;SDS011;10132;50.864;5.176;2022-07-23T11:28:15;4.57;;;3.35;;
19940;SDS011;10132;50.864;5.176;2022-07-23T11:32:39;3.53;;;2.53;;
19940;SDS011;10132;50.864;5.176;2022-07-23T11:34:43;2.80;;;2.10;;
19940;SDS011;10132;50.864;5.176;2022-07-23T11:36:49;2.85;;;2.00;;
19940;SDS011;10132;50.864;5.176;2022-07-23T11:38:51;4.80;;;2.05;;
19940;SDS011;10132;50.864;5.176;2022-07-23T11:40:54;3.92;;;2.28;;
19940;SDS011;10132;50.864;5.176;2022-07-23T11:42:58;4.18;;;2.03;;
19940;SDS011;10132;50.864;5.176;2022-07-23T11:45:03;3.50;;;1.92;;
19940;SDS011;10132;50.864;5.176;2022-07-23T11:47:07;2.35;;;1.70;;
19940;SDS011;10132;50.864;5.176;2022-07-23T11:49:11;2.30;;;1.80;;
19940;SDS011;10132;50.864;5.176;2022-07-23T11:51:24;1.75;;;1.40;;
19940;SDS011;10132;50.864;5.176;2022-07-23T11:53:27;2.65;;;1.92;;
19940;SDS011;10132;50.864;5.176;2022-07-23T11:55:30;2.17;;;1.88;;
19940;SDS011;10132;50.864;5.176;2022-07-23T11:57:33;2.30;;;2.00;;
19940;SDS011;10132;50.864;5.176;2022-07-23T11:59:36;3.00;;;2.08;;
19940;SDS011;10132;50.864;5.176;2022-07-23T12:01:44;2.92;;;1.83;;
19940;SDS011;10132;50.864;5.176;2022-07-23T12:03:57;3.53;;;1.90;;
19940;SDS011;10132;50.864;5.176;2022-07-23T12:05:59;3.15;;;2.10;;
19940;SDS011;10132;50.864;5.176;2022-07-23T12:08:04;2.67;;;2.20;;
19940;SDS011;10132;50.864;5.176;2022-07-23T12:10:09;2.67;;;1.98;;
19940;SDS011;10132;50.864;5.176;2022-07-23T12:12:13;1.75;;;1.65;;
19940;SDS011;10132;50.864;5.176;2022-07-23T12:14:15;2.10;;;1.80;;
19940;SDS011;10132;50.864;5.176;2022-07-23T12:16:17;2.92;;;1.70;;
19940;SDS011;10132;50.864;5.176;2022-07-23T12:18:21;1.73;;;1.63;;
19940;SDS011;10132;50.864;5.176;2022-07-23T12:20:25;2.30;;;2.10;;
19940;SDS011;10132;50.864;5.176;2022-07-23T12:22:33;2.30;;;1.80;;
19940;SDS011;10132;50.864;5.176;2022-07-23T12:27:08;1.75;;;1.65;;
19940;SDS011;10132;50.864;5.176;2022-07-23T12:29:11;2.13;;;1.80;;
19940;SDS011;10132;50.864;5.176;2022-07-23T12:31:12;2.45;;;1.60;;
19940;SDS011;10132;50.864;5.176;2022-07-23T12:33:15;1.80;;;1.50;;
19940;SDS011;10132;50.864;5.176;2022-07-23T12:35:30;1.90;;;1.70;;
19940;SDS011;10132;50.864;5.176;2022-07-23T12:37:36;2.85;;;1.80;;